createdAt,value
2019-05-11T00:00:42.544Z,9.20
2019-05-11T00:03:16.301Z,9.10
2019-05-11T00:05:50.037Z,9.10
2019-05-11T00:08:24.056Z,9.10
2019-05-11T00:10:57.885Z,9.10
2019-05-11T00:13:31.668Z,9.00
2019-05-11T00:16:05.410Z,9.00
2019-05-11T00:18:39.096Z,9.00
2019-05-11T00:21:12.845Z,9.00
2019-05-11T00:23:46.679Z,8.90
2019-05-11T00:26:20.444Z,8.90
2019-05-11T00:28:54.329Z,8.90
2019-05-11T00:31:28.044Z,8.80
2019-05-11T00:34:01.931Z,8.80
2019-05-11T00:36:35.805Z,8.80
2019-05-11T00:39:09.604Z,8.70
2019-05-11T00:41:43.328Z,8.70
2019-05-11T00:44:17.246Z,8.70
2019-05-11T00:46:50.922Z,8.60
2019-05-11T00:49:24.725Z,8.60
2019-05-11T00:51:58.532Z,8.60
2019-05-11T00:54:32.279Z,8.50
2019-05-11T00:57:06.160Z,8.50
2019-05-11T00:59:39.895Z,8.40
2019-05-11T01:02:14.014Z,8.40
2019-05-11T01:04:47.987Z,8.40
2019-05-11T01:07:21.824Z,8.30
2019-05-11T01:09:55.674Z,8.30
2019-05-11T01:12:29.537Z,8.30
2019-05-11T01:15:03.690Z,8.20
2019-05-11T01:17:37.408Z,8.20
2019-05-11T01:20:12.794Z,8.20
2019-05-11T01:22:46.614Z,8.20
2019-05-11T01:25:20.471Z,8.10
2019-05-11T01:27:54.202Z,8.10
2019-05-11T01:30:28.101Z,8.10
2019-05-11T01:33:01.833Z,8.10
2019-05-11T01:35:35.618Z,8.10
2019-05-11T01:38:09.344Z,8.10
2019-05-11T01:40:57.621Z,8.00
2019-05-11T01:43:18.957Z,8.00
2019-05-11T01:45:52.800Z,8.00
2019-05-11T01:48:26.622Z,8.00
2019-05-11T01:51:00.459Z,8.00
2019-05-11T01:53:34.223Z,8.00
2019-05-11T01:56:07.970Z,7.90
2019-05-11T01:58:41.586Z,7.90
2019-05-11T02:01:15.355Z,7.80
2019-05-11T02:03:49.251Z,7.80
2019-05-11T02:06:23.066Z,7.80
2019-05-11T02:08:57.127Z,7.80
2019-05-11T02:11:30.940Z,7.80
2019-05-11T02:14:04.841Z,7.80
2019-05-11T02:16:38.723Z,7.80
2019-05-11T02:19:12.520Z,7.80
2019-05-11T02:21:46.553Z,7.80
2019-05-11T02:24:20.382Z,7.80
2019-05-11T02:26:54.229Z,7.80
2019-05-11T02:29:27.909Z,7.90
2019-05-11T02:32:01.732Z,7.90
2019-05-11T02:34:35.402Z,7.90
2019-05-11T02:37:09.111Z,8.00
2019-05-11T02:39:42.814Z,8.00
2019-05-11T02:42:16.680Z,8.10
2019-05-11T02:44:50.473Z,8.10
2019-05-11T02:47:24.394Z,8.20
2019-05-11T02:49:58.286Z,8.20
2019-05-11T02:52:33.293Z,8.20
2019-05-11T02:55:07.916Z,8.30
2019-05-11T02:57:41.721Z,8.30
2019-05-11T03:00:20.218Z,8.40
2019-05-11T03:02:54.037Z,8.40
2019-05-11T03:05:27.932Z,8.50
2019-05-11T03:08:01.819Z,8.50
2019-05-11T03:10:35.833Z,8.50
2019-05-11T03:13:09.490Z,8.50
2019-05-11T03:15:43.280Z,8.60
2019-05-11T03:18:16.983Z,8.60
2019-05-11T03:20:51.104Z,8.60
2019-05-11T03:23:24.948Z,8.70
2019-05-11T03:25:58.642Z,8.70
2019-05-11T03:28:32.468Z,8.70
2019-05-11T03:31:06.318Z,8.70
2019-05-11T03:33:40.226Z,8.80
2019-05-11T03:36:13.938Z,8.80
2019-05-11T03:38:47.745Z,8.80
2019-05-11T03:41:21.640Z,8.80
2019-05-11T03:43:55.249Z,8.80
2019-05-11T03:46:29.038Z,8.80
2019-05-11T03:49:02.731Z,8.70
2019-05-11T03:51:36.859Z,8.70
2019-05-11T03:54:10.627Z,8.80
2019-05-11T03:56:44.535Z,8.70
2019-05-11T03:59:18.224Z,8.70
2019-05-11T04:01:52.034Z,8.70
2019-05-11T04:04:25.936Z,8.70
2019-05-11T04:06:59.783Z,8.70
2019-05-11T04:09:33.416Z,8.70
2019-05-11T04:12:07.135Z,8.70
2019-05-11T04:14:40.882Z,8.70
2019-05-11T04:17:14.624Z,8.70
2019-05-11T04:19:48.399Z,8.70
2019-05-11T04:22:22.136Z,8.70
2019-05-11T04:24:55.751Z,8.70
2019-05-11T04:27:29.646Z,8.70
2019-05-11T04:30:03.821Z,8.70
2019-05-11T04:32:37.532Z,8.70
2019-05-11T04:35:11.649Z,8.80
2019-05-11T04:37:45.598Z,8.80
2019-05-11T04:40:19.418Z,8.90
2019-05-11T04:42:55.714Z,9.00
2019-05-11T04:45:28.523Z,9.10
2019-05-11T04:48:02.287Z,9.20
2019-05-11T04:50:36.044Z,9.40
2019-05-11T04:53:09.741Z,9.60
2019-05-11T04:55:43.570Z,9.80
2019-05-11T04:58:17.446Z,10.00
2019-05-11T05:00:51.082Z,10.40
2019-05-11T05:03:39.654Z,10.70
2019-05-11T05:06:20.846Z,11.10
2019-05-11T05:08:35.570Z,11.60
2019-05-11T05:11:09.313Z,12.10
2019-05-11T05:13:43.071Z,12.50
2019-05-11T05:16:16.964Z,13.10
2019-05-11T05:18:50.694Z,13.50
2019-05-11T05:21:24.378Z,14.00
2019-05-11T05:23:58.032Z,14.50
2019-05-11T05:26:31.858Z,14.90
2019-05-11T05:29:05.574Z,15.40
2019-05-11T05:31:39.510Z,15.80
2019-05-11T05:34:13.198Z,16.20
2019-05-11T05:36:46.953Z,16.60
2019-05-11T05:39:20.620Z,17.00
2019-05-11T05:41:57.104Z,17.40
2019-05-11T05:44:29.571Z,17.70
2019-05-11T05:47:03.303Z,18.10
2019-05-11T05:49:37.055Z,18.30
2019-05-11T05:52:10.810Z,18.50
2019-05-11T05:54:44.553Z,18.60
2019-05-11T05:57:18.563Z,18.70
2019-05-11T05:59:52.365Z,18.80
2019-05-11T06:02:26.191Z,18.90
2019-05-11T06:04:59.885Z,19.00
2019-05-11T06:07:33.725Z,19.10
2019-05-11T06:10:07.707Z,19.00
2019-05-11T06:12:41.346Z,19.10
2019-05-11T06:15:15.524Z,19.20
2019-05-11T06:17:49.227Z,19.50
2019-05-11T06:20:23.142Z,19.80
2019-05-11T06:22:56.885Z,20.20
2019-05-11T06:25:30.631Z,20.50
2019-05-11T06:28:04.518Z,20.90
2019-05-11T06:30:38.134Z,21.20
2019-05-11T06:33:11.891Z,21.60
2019-05-11T06:35:45.737Z,21.80
2019-05-11T06:38:19.338Z,21.90
2019-05-11T06:40:55.745Z,22.00
2019-05-11T06:43:29.353Z,22.10
2019-05-11T06:46:03.034Z,22.20
2019-05-11T06:48:37.022Z,22.30
2019-05-11T06:51:10.790Z,22.40
2019-05-11T06:53:44.475Z,22.40
2019-05-11T06:56:18.274Z,22.20
2019-05-11T06:58:51.895Z,22.00
2019-05-11T07:01:25.915Z,21.90
2019-05-11T07:03:59.522Z,21.80
2019-05-11T07:06:33.396Z,21.90
2019-05-11T07:09:07.581Z,22.00
2019-05-11T07:11:41.212Z,22.10
2019-05-11T07:14:20.677Z,22.20
2019-05-11T07:16:50.303Z,22.30
2019-05-11T07:19:24.052Z,22.10
2019-05-11T07:21:57.683Z,21.90
2019-05-11T07:24:31.515Z,21.50
2019-05-11T07:27:05.350Z,21.40
2019-05-11T07:29:39.065Z,21.30
2019-05-11T07:32:22.444Z,21.20
2019-05-11T07:34:48.788Z,20.90
2019-05-11T07:37:24.403Z,20.70
2019-05-11T07:39:58.283Z,20.60
2019-05-11T07:42:32.074Z,20.50
2019-05-11T07:45:08.905Z,20.70
2019-05-11T07:47:42.451Z,20.90
2019-05-11T07:50:18.147Z,21.30
2019-05-11T07:52:51.991Z,21.60
2019-05-11T07:55:28.104Z,21.80
2019-05-11T07:58:01.261Z,22.00
2019-05-11T08:00:37.446Z,22.10
2019-05-11T08:03:10.371Z,22.40
2019-05-11T08:05:44.130Z,22.60
2019-05-11T08:08:18.197Z,22.70
2019-05-11T08:10:52.261Z,22.70
2019-05-11T08:13:28.268Z,22.70
2019-05-11T08:16:01.724Z,22.80
2019-05-11T08:18:35.430Z,23.10
2019-05-11T08:21:09.315Z,23.40
2019-05-11T08:23:42.969Z,23.70
2019-05-11T08:26:18.798Z,23.90
2019-05-11T08:28:52.152Z,24.10
2019-05-11T08:31:27.942Z,24.40
2019-05-11T08:34:01.410Z,24.70
2019-05-11T08:36:37.677Z,25.00
2019-05-11T08:39:10.645Z,25.30
2019-05-11T08:41:44.300Z,25.50
2019-05-11T08:44:18.270Z,25.60
2019-05-11T08:46:52.202Z,25.60
2019-05-11T08:49:26.326Z,25.60
2019-05-11T08:52:01.198Z,25.40
2019-05-11T08:54:34.852Z,25.30
2019-05-11T08:57:08.658Z,25.30
2019-05-11T08:59:42.306Z,25.20
2019-05-11T09:02:18.461Z,25.00
2019-05-11T09:04:52.001Z,24.80
2019-05-11T09:07:27.790Z,24.80
2019-05-11T09:10:01.295Z,25.00
2019-05-11T09:12:35.016Z,25.20
2019-05-11T09:15:09.495Z,25.30
2019-05-11T09:17:43.224Z,25.30
2019-05-11T09:20:17.982Z,25.30
2019-05-11T09:22:52.100Z,25.20
2019-05-11T09:25:27.790Z,25.20
2019-05-11T09:28:01.113Z,25.30
2019-05-11T09:30:34.994Z,25.40
2019-05-11T09:33:08.775Z,25.50
2019-05-11T09:35:50.036Z,25.50
2019-05-11T09:38:18.582Z,25.50
2019-05-11T09:40:52.571Z,25.40
2019-05-11T09:43:28.293Z,25.40
2019-05-11T09:46:01.685Z,25.40
2019-05-11T09:48:37.656Z,25.30
2019-05-11T09:51:10.649Z,25.20
2019-05-11T09:53:44.271Z,25.10
2019-05-11T09:56:18.497Z,24.90
2019-05-11T09:58:52.505Z,24.90
2019-05-11T10:01:26.220Z,24.80
2019-05-11T10:03:59.754Z,24.90
2019-05-11T10:06:33.456Z,25.10
2019-05-11T10:09:08.192Z,25.30
2019-05-11T10:11:42.262Z,25.50
2019-05-11T10:14:16.073Z,25.60
2019-05-11T10:16:49.684Z,25.60
2019-05-11T10:19:23.415Z,25.50
2019-05-11T10:21:58.051Z,25.40
2019-05-11T10:24:32.153Z,25.30
2019-05-11T10:27:08.279Z,25.40
2019-05-11T10:29:41.361Z,25.20
2019-05-11T10:32:15.012Z,24.90
2019-05-11T10:34:48.781Z,24.70
2019-05-11T10:37:22.514Z,24.50
2019-05-11T10:39:57.748Z,24.20
2019-05-11T10:42:31.649Z,24.00
2019-05-11T10:45:05.469Z,23.80
2019-05-11T10:47:39.079Z,23.90
2019-05-11T10:50:13.041Z,24.10
2019-05-11T10:52:48.387Z,24.30
2019-05-11T10:55:22.330Z,24.40
2019-05-11T10:57:58.095Z,24.50
2019-05-11T11:00:31.736Z,24.60
2019-05-11T11:03:05.588Z,24.70
2019-05-11T11:05:39.398Z,24.90
2019-05-11T11:08:13.197Z,25.10
2019-05-11T11:10:48.366Z,25.20
2019-05-11T11:13:22.400Z,25.30
2019-05-11T11:15:58.185Z,25.20
2019-05-11T11:18:32.567Z,25.10
2019-05-11T11:21:08.507Z,25.10
2019-05-11T11:23:41.742Z,25.10
2019-05-11T11:26:15.449Z,25.00
2019-05-11T11:28:49.246Z,25.00
2019-05-11T11:31:22.888Z,25.10
2019-05-11T11:33:58.524Z,25.00
2019-05-11T11:36:32.104Z,24.90
2019-05-11T11:39:08.315Z,24.90
2019-05-11T11:41:41.997Z,24.90
2019-05-11T11:44:18.315Z,24.90
2019-05-11T11:46:55.146Z,25.00
2019-05-11T11:49:28.265Z,25.00
2019-05-11T11:52:01.808Z,24.90
2019-05-11T11:54:35.604Z,24.70
2019-05-11T11:57:09.342Z,24.50
2019-05-11T11:59:44.494Z,24.50
2019-05-11T12:02:19.098Z,24.50
2019-05-11T12:04:53.120Z,24.40
2019-05-11T12:07:28.482Z,24.40
2019-05-11T12:10:02.464Z,24.40
2019-05-11T12:12:38.436Z,24.40
2019-05-11T12:15:11.919Z,24.50
2019-05-11T12:17:45.591Z,24.50
2019-05-11T12:20:19.506Z,24.40
2019-05-11T12:22:53.722Z,24.30
2019-05-11T12:25:27.952Z,24.10
2019-05-11T12:28:01.923Z,24.00
2019-05-11T12:30:37.562Z,23.90
2019-05-11T12:33:11.062Z,23.70
2019-05-11T12:35:44.884Z,23.60
2019-05-11T12:38:18.766Z,23.50
2019-05-11T12:40:53.349Z,23.40
2019-05-11T12:43:27.716Z,23.40
2019-05-11T12:46:01.778Z,23.30
2019-05-11T12:48:37.743Z,23.20
2019-05-11T12:51:11.087Z,23.20
2019-05-11T12:53:44.962Z,23.20
2019-05-11T12:56:19.136Z,23.10
2019-05-11T12:58:53.230Z,23.00
2019-05-11T13:01:29.000Z,22.80
2019-05-11T13:04:02.441Z,22.50
2019-05-11T13:06:38.310Z,22.30
2019-05-11T13:09:11.734Z,22.10
2019-05-11T13:11:45.575Z,21.90
2019-05-11T13:14:19.230Z,21.80
2019-05-11T13:16:52.961Z,21.70
2019-05-11T13:19:28.185Z,21.70
2019-05-11T13:22:02.278Z,21.80
2019-05-11T13:24:38.171Z,21.80
2019-05-11T13:27:11.465Z,21.90
2019-05-11T13:29:45.183Z,21.90
2019-05-11T13:32:19.012Z,22.00
2019-05-11T13:34:52.722Z,22.00
2019-05-11T13:37:28.314Z,22.10
2019-05-11T13:40:02.177Z,22.10
2019-05-11T13:42:38.326Z,22.10
2019-05-11T13:45:11.503Z,22.10
2019-05-11T13:47:52.448Z,22.20
2019-05-11T13:50:20.824Z,22.10
2019-05-11T13:52:54.556Z,22.10
2019-05-11T13:55:29.773Z,22.10
2019-05-11T13:58:03.614Z,22.10
2019-05-11T14:00:38.077Z,22.10
2019-05-11T14:03:14.610Z,22.10
2019-05-11T14:05:48.455Z,22.10
2019-05-11T14:08:22.333Z,22.10
2019-05-11T14:10:57.889Z,22.20
2019-05-11T14:13:31.516Z,22.20
2019-05-11T14:16:05.355Z,22.20
2019-05-11T14:18:39.273Z,22.20
2019-05-11T14:21:13.018Z,22.10
2019-05-11T14:23:48.426Z,22.10
2019-05-11T14:26:22.194Z,22.00
2019-05-11T14:28:57.793Z,21.90
2019-05-11T14:31:31.602Z,21.90
2019-05-11T14:34:05.496Z,21.90
2019-05-11T14:36:39.394Z,21.80
2019-05-11T14:39:13.241Z,21.80
2019-05-11T14:41:48.783Z,21.80
2019-05-11T14:44:22.553Z,21.70
2019-05-11T14:46:59.375Z,21.70
2019-05-11T14:49:33.307Z,21.60
2019-05-11T14:52:08.414Z,21.50
2019-05-11T14:54:42.180Z,21.40
2019-05-11T14:57:18.445Z,21.40
2019-05-11T14:59:51.467Z,21.30
2019-05-11T15:02:25.418Z,21.20
2019-05-11T15:04:59.201Z,21.10
2019-05-11T15:07:32.913Z,21.10
2019-05-11T15:10:08.030Z,21.00
2019-05-11T15:12:42.055Z,20.90
2019-05-11T15:15:18.684Z,20.90
2019-05-11T15:17:52.396Z,20.80
2019-05-11T15:20:28.545Z,20.80
2019-05-11T15:23:01.655Z,20.70
2019-05-11T15:25:37.687Z,20.70
2019-05-11T15:28:10.913Z,20.60
2019-05-11T15:30:44.732Z,20.60
2019-05-11T15:33:22.453Z,20.50
2019-05-11T15:35:58.170Z,20.50
2019-05-11T15:38:31.661Z,20.40
2019-05-11T15:41:08.373Z,20.30
2019-05-11T15:43:42.356Z,20.30
2019-05-11T15:46:19.400Z,20.20
2019-05-11T15:48:58.801Z,20.20
2019-05-11T15:51:28.977Z,20.20
2019-05-11T15:54:02.626Z,20.10
2019-05-11T15:56:38.327Z,20.10
2019-05-11T15:59:11.847Z,20.00
2019-05-11T16:01:45.746Z,20.00
2019-05-11T16:04:19.727Z,20.00
2019-05-11T16:06:53.486Z,20.00
2019-05-11T16:09:29.016Z,20.00
2019-05-11T16:12:02.686Z,19.90
2019-05-11T16:14:38.314Z,19.90
2019-05-11T16:17:11.786Z,19.80
2019-05-11T16:19:45.674Z,19.80
2019-05-11T16:22:21.191Z,19.70
2019-05-11T16:24:55.147Z,19.70
2019-05-11T16:27:28.807Z,19.60
2019-05-11T16:30:02.534Z,19.50
2019-05-11T16:32:38.632Z,19.40
2019-05-11T16:35:12.367Z,19.40
2019-05-11T16:37:48.380Z,19.20
2019-05-11T16:40:21.909Z,19.10
2019-05-11T16:42:56.694Z,19.00
2019-05-11T16:45:31.286Z,18.90
2019-05-11T16:48:05.031Z,18.80
2019-05-11T16:50:38.745Z,18.80
2019-05-11T16:53:12.526Z,18.70
2019-05-11T16:55:48.350Z,18.60
2019-05-11T16:58:21.646Z,18.60
2019-05-11T17:00:57.944Z,18.60
2019-05-11T17:03:31.047Z,18.50
2019-05-11T17:06:04.809Z,18.40
2019-05-11T17:08:38.572Z,18.40
2019-05-11T17:11:12.367Z,18.30
2019-05-11T17:13:48.195Z,18.20
2019-05-11T17:16:21.607Z,18.10
2019-05-11T17:18:55.212Z,18.10
2019-05-11T17:21:29.723Z,18.00
2019-05-11T17:24:03.791Z,18.00
2019-05-11T17:26:38.536Z,17.90
2019-05-11T17:29:12.430Z,17.80
2019-05-11T17:31:48.334Z,17.70
2019-05-11T17:34:21.687Z,17.60
2019-05-11T17:36:57.854Z,17.60
2019-05-11T17:39:31.194Z,17.50
2019-05-11T17:42:05.107Z,17.40
2019-05-11T17:44:38.968Z,17.40
2019-05-11T17:47:12.769Z,17.30
2019-05-11T17:49:57.397Z,17.20
2019-05-11T17:52:22.039Z,17.10
2019-05-11T17:54:55.867Z,17.00
2019-05-11T17:57:29.668Z,17.00
2019-05-11T18:00:03.727Z,16.90
2019-05-11T18:02:39.011Z,16.80
2019-05-11T18:05:13.286Z,16.70
2019-05-11T18:07:46.989Z,16.60
2019-05-11T18:10:20.827Z,16.60
2019-05-11T18:12:54.927Z,16.50
2019-05-11T18:15:28.967Z,16.40
2019-05-11T18:18:02.647Z,16.30
2019-05-11T18:20:38.033Z,16.20
2019-05-11T18:23:12.045Z,16.10
2019-05-11T18:25:47.877Z,16.10
2019-05-11T18:28:21.237Z,16.00
2019-05-11T18:30:58.223Z,15.90
2019-05-11T18:33:31.766Z,15.80
2019-05-11T18:36:07.868Z,15.80
2019-05-11T18:38:41.146Z,15.70
2019-05-11T18:41:15.107Z,15.60
2019-05-11T18:43:48.907Z,15.60
2019-05-11T18:46:22.679Z,15.50
2019-05-11T18:48:56.367Z,15.50
2019-05-11T18:51:30.246Z,15.30
2019-05-11T18:54:04.257Z,15.30
2019-05-11T18:56:38.635Z,15.20
2019-05-11T18:59:12.446Z,15.10
2019-05-11T19:01:48.376Z,15.00
2019-05-11T19:04:21.650Z,15.00
2019-05-11T19:06:55.491Z,14.90
2019-05-11T19:09:29.286Z,14.80
2019-05-11T19:12:03.287Z,14.70
2019-05-11T19:14:38.681Z,14.60
2019-05-11T19:17:12.827Z,14.50
2019-05-11T19:19:48.608Z,14.40
2019-05-11T19:22:22.189Z,14.40
2019-05-11T19:24:58.183Z,14.30
2019-05-11T19:27:31.488Z,14.20
2019-05-11T19:30:08.078Z,14.10
2019-05-11T19:32:42.651Z,14.00
2019-05-11T19:35:17.590Z,14.00
2019-05-11T19:37:52.047Z,13.80
2019-05-11T19:40:25.807Z,13.80
2019-05-11T19:42:59.607Z,13.70
2019-05-11T19:45:33.395Z,13.60
2019-05-11T19:48:08.366Z,13.60
2019-05-11T19:50:42.500Z,13.50
2019-05-11T19:53:18.618Z,13.40
2019-05-11T19:55:51.887Z,13.30
2019-05-11T19:58:25.768Z,13.30
2019-05-11T20:00:59.467Z,13.20
2019-05-11T20:03:33.227Z,13.10
2019-05-11T20:06:08.832Z,13.10
2019-05-11T20:08:42.528Z,13.00
2019-05-11T20:11:18.527Z,12.90
2019-05-11T20:13:51.954Z,12.90
2019-05-11T20:16:25.860Z,12.80
2019-05-11T20:18:59.627Z,12.70
2019-05-11T20:21:38.025Z,12.70
2019-05-11T20:24:11.269Z,12.60
2019-05-11T20:26:45.094Z,12.60
2019-05-11T20:29:19.194Z,12.50
2019-05-11T20:31:53.048Z,12.50
2019-05-11T20:34:28.782Z,12.40
2019-05-11T20:37:02.366Z,12.30
2019-05-11T20:39:37.920Z,12.30
2019-05-11T20:42:11.928Z,12.20
2019-05-11T20:44:45.787Z,12.20
2019-05-11T20:47:22.948Z,12.10
2019-05-11T20:49:58.579Z,12.10
2019-05-11T20:52:32.251Z,12.00
2019-05-11T20:55:08.566Z,12.00
2019-05-11T20:57:41.666Z,12.00
2019-05-11T21:00:18.430Z,12.00
2019-05-11T21:02:51.749Z,11.90
2019-05-11T21:05:25.608Z,11.90
2019-05-11T21:07:59.547Z,11.80
2019-05-11T21:10:33.515Z,11.80
2019-05-11T21:13:08.579Z,11.70
2019-05-11T21:15:42.922Z,11.70
2019-05-11T21:18:18.447Z,11.70
2019-05-11T21:20:52.440Z,11.60
2019-05-11T21:23:26.127Z,11.60
2019-05-11T21:25:59.978Z,11.50
2019-05-11T21:28:33.886Z,11.50
2019-05-11T21:31:08.159Z,11.40
2019-05-11T21:33:42.103Z,11.40
2019-05-11T21:36:18.049Z,11.40
2019-05-11T21:38:51.439Z,11.30
2019-05-11T21:41:25.446Z,11.30
2019-05-11T21:43:59.320Z,11.30
2019-05-11T21:46:33.206Z,11.20
2019-05-11T21:49:07.832Z,11.20
2019-05-11T21:51:41.798Z,11.10
2019-05-11T21:54:15.629Z,11.10
2019-05-11T21:56:49.556Z,11.00
2019-05-11T21:59:23.627Z,11.00
2019-05-11T22:01:57.347Z,10.90
2019-05-11T22:04:31.168Z,10.90
2019-05-11T22:07:04.906Z,10.90
2019-05-11T22:09:38.864Z,10.80
2019-05-11T22:12:12.820Z,10.80
2019-05-11T22:14:48.892Z,10.80
2019-05-11T22:17:23.085Z,10.80
2019-05-11T22:19:58.529Z,10.70
2019-05-11T22:22:32.251Z,10.70
2019-05-11T22:25:07.874Z,10.70
2019-05-11T22:27:41.668Z,10.70
2019-05-11T22:30:15.640Z,10.60
2019-05-11T22:32:49.456Z,10.60
2019-05-11T22:35:23.378Z,10.60
2019-05-11T22:37:57.854Z,10.50
2019-05-11T22:40:31.997Z,10.50
2019-05-11T22:43:05.814Z,10.50
2019-05-11T22:45:39.563Z,10.40
2019-05-11T22:48:13.399Z,10.30
2019-05-11T22:50:48.096Z,10.30
2019-05-11T22:53:22.360Z,10.20
2019-05-11T22:55:56.049Z,10.20
2019-05-11T22:58:29.838Z,10.10
2019-05-11T23:01:03.549Z,10.10
2019-05-11T23:03:38.298Z,10.00
2019-05-11T23:06:12.205Z,10.00
2019-05-11T23:08:48.316Z,10.00
2019-05-11T23:11:21.431Z,9.90
2019-05-11T23:13:55.221Z,9.90
2019-05-11T23:16:28.986Z,9.80
2019-05-11T23:19:02.682Z,9.80
2019-05-11T23:21:38.771Z,9.70
2019-05-11T23:24:11.900Z,9.70
2019-05-11T23:26:47.896Z,9.70
2019-05-11T23:29:20.933Z,9.60
2019-05-11T23:31:54.785Z,9.60
2019-05-11T23:34:28.412Z,9.60
2019-05-11T23:37:02.371Z,9.60
2019-05-11T23:39:38.341Z,9.60
2019-05-11T23:42:11.594Z,9.50
2019-05-11T23:44:45.940Z,9.50
2019-05-11T23:47:20.792Z,9.50
2019-05-11T23:49:54.532Z,9.60
2019-05-11T23:52:29.529Z,9.50
2019-05-11T23:55:03.479Z,9.60
2019-05-11T23:57:37.949Z,9.60
